Time;durP1;ratioP1;P1;durP2;ratioP2;P2;SDS_P1;SDS_P2;PMS_P1;PMS_P2;Temp;Humidity;BMP_temperature;BMP_pressure;BME280_temperature;BME280_humidity;BME280_pressure;Samples;Min_cycle;Max_cycle;Signal;HPM_P1;HPM_P2
2021/10/30 00:01:42;;;;;;;10.68;6.90;;;;;;;8.92;100.00;100734.69;5038778;28;20519;-83
2021/10/30 00:04:08;;;;;;;11.15;6.32;;;;;;;8.94;100.00;100724.91;5052158;28;20034;-83
2021/10/30 00:06:33;;;;;;;8.85;6.22;;;;;;;8.92;100.00;100725.03;5043081;28;20033;-81
2021/10/30 00:08:59;;;;;;;13.70;6.43;;;;;;;8.87;100.00;100716.78;5032744;28;20032;-81
2021/10/30 00:11:25;;;;;;;10.73;5.95;;;;;;;8.91;100.00;100714.69;5027706;28;20048;-81
2021/10/30 00:13:50;;;;;;;9.18;6.35;;;;;;;8.90;100.00;100695.56;5027076;28;20048;-82
2021/10/30 00:16:19;;;;;;;11.93;6.20;;;;;;;8.91;100.00;100681.53;5012567;28;20067;-82
2021/10/30 00:18:45;;;;;;;9.93;6.45;;;;;;;9.03;100.00;100697.91;5044817;28;20033;-81
2021/10/30 00:21:11;;;;;;;7.50;5.68;;;;;;;9.09;100.00;100702.59;5035350;28;20395;-81
2021/10/30 00:23:36;;;;;;;10.15;6.05;;;;;;;9.26;100.00;100739.50;5030179;28;20060;-82
2021/10/30 00:26:03;;;;;;;10.00;5.97;;;;;;;9.15;100.00;100724.78;5041366;28;20076;-82
2021/10/30 00:28:28;;;;;;;8.73;6.03;;;;;;;9.06;100.00;100717.75;5011367;28;20041;-82
2021/10/30 00:30:54;;;;;;;10.82;6.72;;;;;;;9.20;100.00;100730.44;5038847;28;20040;-82
2021/10/30 00:33:19;;;;;;;10.13;6.07;;;;;;;9.18;100.00;100737.59;5041478;28;20024;-82
2021/10/30 00:35:45;;;;;;;9.73;6.00;;;;;;;9.13;100.00;100727.50;5035872;28;20395;-81
2021/10/30 00:38:11;;;;;;;8.25;5.70;;;;;;;9.10;100.00;100733.03;5038210;28;20025;-81
2021/10/30 00:40:36;;;;;;;10.70;6.25;;;;;;;8.97;100.00;100719.41;5007982;28;20546;-79
2021/10/30 00:43:02;;;;;;;13.10;6.38;;;;;;;9.06;100.00;100743.91;5023958;28;20051;-80
2021/10/30 00:45:29;;;;;;;13.18;6.13;;;;;;;9.04;100.00;100757.16;5041195;28;20471;-81
2021/10/30 00:47:54;;;;;;;10.15;5.90;;;;;;;9.06;100.00;100750.00;5056538;28;20017;-82
2021/10/30 00:50:20;;;;;;;11.65;6.18;;;;;;;9.05;100.00;100758.78;5025371;28;20037;-82
2021/10/30 00:52:46;;;;;;;9.88;6.15;;;;;;;9.06;100.00;100754.38;5042988;28;20367;-81
2021/10/30 00:55:12;;;;;;;11.90;6.22;;;;;;;9.06;100.00;100749.13;5043878;28;20033;-83
2021/10/30 00:57:40;;;;;;;8.25;5.82;;;;;;;9.06;100.00;100743.91;5041605;28;20033;-81
2021/10/30 01:00:07;;;;;;;11.80;6.60;;;;;;;8.90;100.00;100729.56;5040421;28;20506;-82
2021/10/30 01:02:33;;;;;;;9.85;6.15;;;;;;;8.90;100.00;100718.28;5059069;28;20025;-82
2021/10/30 01:04:59;;;;;;;9.10;6.10;;;;;;;9.00;100.00;100747.88;5006458;28;20506;-81
2021/10/30 01:07:27;;;;;;;14.27;6.82;;;;;;;8.91;100.00;100733.00;5037892;28;20044;-81
2021/10/30 01:09:53;;;;;;;10.68;6.18;;;;;;;8.89;100.00;100735.78;5009311;28;20059;-81
2021/10/30 01:12:19;;;;;;;8.73;5.85;;;;;;;8.87;100.00;100742.09;5041659;28;20033;-82
2021/10/30 01:14:45;;;;;;;8.65;5.90;;;;;;;8.87;100.00;100739.47;5059121;28;20560;-82
2021/10/30 01:17:11;;;;;;;9.07;6.00;;;;;;;8.90;100.00;100747.06;5009843;28;20073;-81
2021/10/30 01:19:38;;;;;;;10.18;6.30;;;;;;;8.87;100.00;100744.72;5024889;28;20034;-82
2021/10/30 01:22:05;;;;;;;13.18;7.13;;;;;;;8.85;100.00;100757.91;5031526;28;20078;-84
2021/10/30 01:24:30;;;;;;;11.23;6.80;;;;;;;8.80;100.00;100757.50;5022594;28;20399;-83
2021/10/30 01:26:56;;;;;;;9.38;6.43;;;;;;;8.76;100.00;100762.19;5029025;28;20056;-82
2021/10/30 01:29:22;;;;;;;17.80;6.50;;;;;;;8.73;100.00;100746.75;5040629;28;20103;-81
2021/10/30 01:31:49;;;;;;;9.63;6.05;;;;;;;8.80;100.00;100761.91;5044363;28;20069;-81
2021/10/30 01:34:15;;;;;;;14.13;6.63;;;;;;;8.71;100.00;100759.13;5008295;28;20041;-82
2021/10/30 01:36:40;;;;;;;11.05;6.53;;;;;;;8.73;100.00;100759.00;5025264;28;20044;-81
2021/10/30 01:39:09;;;;;;;12.55;6.50;;;;;;;8.64;100.00;100751.97;5021782;28;20035;-81
2021/10/30 01:41:35;;;;;;;9.82;6.00;;;;;;;8.61;100.00;100753.06;5021678;28;20032;-81
2021/10/30 01:44:02;;;;;;;9.45;6.20;;;;;;;8.57;100.00;100747.28;5034742;28;20029;-82
2021/10/30 01:46:28;;;;;;;10.98;6.07;;;;;;;8.52;100.00;100738.19;5042233;28;20032;-83
2021/10/30 01:48:54;;;;;;;8.65;6.47;;;;;;;8.60;100.00;100747.97;5024795;28;20045;-81
2021/10/30 01:51:21;;;;;;;9.85;6.45;;;;;;;8.53;100.00;100747.66;5038672;28;20036;-81
2021/10/30 01:53:48;;;;;;;11.38;6.05;;;;;;;8.55;100.00;100746.59;5040611;28;20029;-81
2021/10/30 01:56:14;;;;;;;12.63;6.25;;;;;;;8.56;100.00;100748.22;5043853;28;20097;-82
2021/10/30 01:58:40;;;;;;;11.20;6.72;;;;;;;8.55;100.00;100748.34;5020424;28;20029;-81
2021/10/30 02:01:07;;;;;;;10.88;6.07;;;;;;;8.56;100.00;100742.19;5024364;28;20090;-82
2021/10/30 02:03:34;;;;;;;9.57;6.53;;;;;;;8.53;100.00;100737.19;5040916;28;20037;-81
2021/10/30 02:06:02;;;;;;;14.40;6.82;;;;;;;8.52;100.00;100732.94;5024674;28;20041;-82
2021/10/30 02:08:29;;;;;;;12.60;6.82;;;;;;;8.45;100.00;100739.66;5033581;28;20487;-81
2021/10/30 02:10:58;;;;;;;15.27;6.60;;;;;;;8.31;100.00;100728.59;5016248;28;20147;-83
2021/10/30 02:13:24;;;;;;;11.07;6.25;;;;;;;8.30;100.00;100739.16;5004875;28;20072;-83
2021/10/30 02:15:50;;;;;;;10.63;6.20;;;;;;;8.28;100.00;100728.00;5029183;28;20037;-82
2021/10/30 02:18:17;;;;;;;11.13;6.07;;;;;;;8.13;100.00;100725.75;5057974;28;20036;-82
2021/10/30 02:20:43;;;;;;;11.35;6.10;;;;;;;8.05;100.00;100722.16;5046579;28;20033;-82
2021/10/30 02:23:09;;;;;;;15.45;6.63;;;;;;;7.89;100.00;100720.00;5042726;28;20032;-82
2021/10/30 02:25:34;;;;;;;12.35;6.03;;;;;;;7.78;100.00;100729.56;5040305;28;20033;-82
2021/10/30 02:28:00;;;;;;;15.73;6.32;;;;;;;7.66;100.00;100730.59;5046422;28;20498;-82
2021/10/30 02:30:26;;;;;;;14.10;6.03;;;;;;;7.54;100.00;100737.66;5029763;28;20087;-82
2021/10/30 02:32:52;;;;;;;13.18;6.93;;;;;;;7.48;100.00;100730.34;5025730;28;20031;-82
2021/10/30 02:35:18;;;;;;;11.05;7.30;;;;;;;7.59;100.00;100727.66;5008196;28;20037;-82
2021/10/30 02:37:43;;;;;;;10.38;6.70;;;;;;;7.67;100.00;100734.88;5041144;28;20044;-83
2021/10/30 02:40:09;;;;;;;12.98;6.32;;;;;;;7.72;100.00;100721.41;5025347;28;20032;-83
2021/10/30 02:42:36;;;;;;;10.55;6.47;;;;;;;7.74;100.00;100717.75;5040153;28;20380;-81
2021/10/30 02:45:03;;;;;;;9.65;6.07;;;;;;;7.56;100.00;100720.09;5044729;28;20032;-84
2021/10/30 02:47:29;;;;;;;10.38;6.40;;;;;;;7.41;100.00;100701.31;5054520;28;20025;-82
2021/10/30 02:49:55;;;;;;;12.13;6.60;;;;;;;7.29;100.00;100689.28;5042252;28;20024;-82
2021/10/30 02:52:21;;;;;;;8.55;6.13;;;;;;;7.39;100.00;100708.44;5024710;28;20037;-82
2021/10/30 02:54:49;;;;;;;9.80;6.05;;;;;;;7.24;100.00;100701.06;5037226;28;20691;-83
2021/10/30 02:57:16;;;;;;;9.13;6.28;;;;;;;7.24;100.00;100703.66;5034895;28;20208;-83
2021/10/30 02:59:41;;;;;;;9.57;6.20;;;;;;;7.13;100.00;100699.31;5038920;28;20541;-81
2021/10/30 03:02:06;;;;;;;10.02;6.05;;;;;;;7.10;100.00;100699.56;5039591;28;20029;-83
2021/10/30 03:04:33;;;;;;;10.82;6.07;;;;;;;7.00;100.00;100700.28;5038503;28;20095;-81
2021/10/30 03:06:58;;;;;;;9.05;6.60;;;;;;;6.96;100.00;100703.28;5024250;28;20037;-82
2021/10/30 03:09:24;;;;;;;10.25;5.80;;;;;;;6.89;100.00;100702.13;5025354;28;20542;-82
2021/10/30 03:11:49;;;;;;;8.23;6.10;;;;;;;6.89;100.00;100704.72;5029462;28;20116;-81
2021/10/30 03:14:15;;;;;;;11.88;6.55;;;;;;;6.85;100.00;100706.75;5016808;28;20041;-81
2021/10/30 03:16:40;;;;;;;10.55;6.78;;;;;;;6.80;100.00;100696.72;5058300;28;20044;-82
2021/10/30 03:19:06;;;;;;;8.02;6.53;;;;;;;6.76;100.00;100691.84;5040303;28;20132;-82
2021/10/30 03:21:32;;;;;;;9.63;6.90;;;;;;;6.77;100.00;100696.13;5020264;28;20029;-82
2021/10/30 03:23:57;;;;;;;13.35;6.65;;;;;;;6.74;100.00;100694.59;5024672;28;20044;-82
2021/10/30 03:26:23;;;;;;;9.65;6.78;;;;;;;6.72;100.00;100685.22;5023698;28;20137;-82
2021/10/30 03:28:49;;;;;;;11.98;6.38;;;;;;;6.69;100.00;100688.91;5048888;28;20037;-82
2021/10/30 03:31:14;;;;;;;12.18;7.30;;;;;;;6.70;100.00;100700.97;5033042;28;20038;-82
2021/10/30 03:33:40;;;;;;;11.32;7.60;;;;;;;6.67;100.00;100697.78;5031158;28;20063;-81
2021/10/30 03:36:05;;;;;;;11.65;7.55;;;;;;;6.67;100.00;100696.03;5019782;28;20662;-82
2021/10/30 03:38:31;;;;;;;12.27;7.50;;;;;;;6.69;100.00;100696.75;5041704;28;20091;-82
2021/10/30 03:40:57;;;;;;;9.88;7.13;;;;;;;6.67;100.00;100697.78;5007268;28;20501;-83
2021/10/30 03:43:22;;;;;;;8.73;6.60;;;;;;;6.62;100.00;100674.72;5009014;28;20558;-85
2021/10/30 03:45:48;;;;;;;11.07;7.05;;;;;;;6.60;100.00;100687.03;5038825;28;20051;-82
2021/10/30 03:48:18;;;;;;;9.63;7.28;;;;;;;6.55;100.00;100681.34;5025593;28;20029;-84
2021/10/30 03:50:44;;;;;;;13.20;6.90;;;;;;;6.51;100.00;100679.94;5037953;28;20802;-81
2021/10/30 03:53:10;;;;;;;10.18;7.18;;;;;;;6.48;100.00;100680.19;5032356;28;20078;-79
2021/10/30 03:55:35;;;;;;;13.85;7.22;;;;;;;6.52;100.00;100681.63;5034017;28;20041;-79
2021/10/30 03:58:01;;;;;;;10.07;7.20;;;;;;;6.56;100.00;100688.25;5035473;28;20029;-79
2021/10/30 04:00:27;;;;;;;13.63;7.30;;;;;;;6.53;100.00;100691.06;5016550;28;20076;-80
2021/10/30 04:02:52;;;;;;;12.23;7.80;;;;;;;6.49;100.00;100684.47;5032810;28;20033;-80
2021/10/30 04:05:18;;;;;;;12.98;8.38;;;;;;;6.54;100.00;100696.19;5020932;28;20214;-80
2021/10/30 04:07:43;;;;;;;14.02;8.90;;;;;;;6.56;100.00;100698.66;5028574;28;20053;-80
2021/10/30 04:10:09;;;;;;;11.30;7.93;;;;;;;6.46;100.00;100693.34;5036576;28;20112;-80
2021/10/30 04:12:35;;;;;;;13.57;8.07;;;;;;;6.55;100.00;100702.22;5016327;28;20096;-79
2021/10/30 04:15:03;;;;;;;13.40;7.80;;;;;;;6.70;100.00;100702.78;5018662;28;20426;-79
2021/10/30 04:17:29;;;;;;;12.70;8.38;;;;;;;6.79;100.00;100700.25;5047671;28;20386;-80
2021/10/30 04:19:55;;;;;;;15.63;8.30;;;;;;;6.85;100.00;100693.72;5007058;28;20045;-80
2021/10/30 04:22:20;;;;;;;15.30;8.57;;;;;;;6.92;100.00;100679.25;5015883;28;20395;-80
2021/10/30 04:24:45;;;;;;;15.70;8.07;;;;;;;7.06;100.00;100678.09;5031705;28;20040;-79
2021/10/30 04:27:11;;;;;;;11.52;8.02;;;;;;;7.10;100.00;100678.69;5024010;28;20041;-80
2021/10/30 04:29:36;;;;;;;12.75;8.20;;;;;;;7.13;100.00;100691.47;5019323;28;20030;-80
2021/10/30 04:32:04;;;;;;;13.60;8.25;;;;;;;7.13;100.00;100691.47;5028514;28;20127;-79
2021/10/30 04:37:15;;;;;;;14.50;8.40;;;;;;;7.03;100.00;100704.44;5034904;28;20119;-79
2021/10/30 04:39:49;;;;;;;13.73;8.68;;;;;;;6.98;100.00;100698.78;5022577;28;20112;-79
2021/10/30 04:42:15;;;;;;;14.50;8.88;;;;;;;6.97;100.00;100699.75;5048735;28;20056;-79
2021/10/30 04:44:41;;;;;;;12.13;8.23;;;;;;;6.95;100.00;100701.63;5037773;28;20033;-79
2021/10/30 04:47:09;;;;;;;12.93;7.88;;;;;;;6.88;100.00;100706.53;5031098;28;20031;-79
2021/10/30 04:49:35;;;;;;;12.15;8.35;;;;;;;6.81;100.00;100705.34;5020619;28;20052;-78
2021/10/30 04:52:01;;;;;;;12.40;8.60;;;;;;;6.78;100.00;100693.41;5026388;28;20033;-78
2021/10/30 04:54:26;;;;;;;11.82;8.68;;;;;;;6.89;100.00;100691.69;5035115;28;20053;-78
2021/10/30 04:56:52;;;;;;;12.13;8.20;;;;;;;6.90;100.00;100701.19;5037548;28;20043;-79
2021/10/30 04:59:17;;;;;;;13.50;8.32;;;;;;;6.89;100.00;100710.75;5034392;28;20041;-79
2021/10/30 05:01:43;;;;;;;14.35;8.32;;;;;;;6.89;100.00;100715.16;5052291;28;20037;-80
2021/10/30 05:04:08;;;;;;;16.15;8.68;;;;;;;6.85;100.00;100717.19;5043416;28;20033;-78
2021/10/30 05:06:34;;;;;;;12.15;8.45;;;;;;;6.83;100.00;100712.09;5023922;28;20513;-78
2021/10/30 05:08:59;;;;;;;11.43;8.57;;;;;;;6.86;100.00;100698.00;5020489;28;20041;-79
2021/10/30 05:11:25;;;;;;;13.13;8.82;;;;;;;6.87;100.00;100710.06;5047104;28;20075;-79
2021/10/30 05:13:50;;;;;;;12.57;8.82;;;;;;;6.87;100.00;100691.81;5039806;28;20039;-79
2021/10/30 05:16:16;;;;;;;15.65;9.38;;;;;;;6.86;100.00;100674.53;5025647;28;20131;-79
2021/10/30 05:18:41;;;;;;;15.25;9.70;;;;;;;6.86;100.00;100676.31;5051039;28;20032;-77
2021/10/30 05:21:06;;;;;;;13.27;8.65;;;;;;;6.83;100.00;100683.41;5038885;28;20057;-78
2021/10/30 05:23:38;;;;;;;11.27;8.15;;;;;;;6.86;100.00;100682.34;5032879;28;20507;-80
2021/10/30 05:26:04;;;;;;;12.45;8.25;;;;;;;6.86;100.00;100687.56;5036923;28;20041;-78
2021/10/30 05:28:30;;;;;;;14.05;9.02;;;;;;;6.88;100.00;100692.66;5007340;28;20040;-80
2021/10/30 05:30:55;;;;;;;12.07;8.65;;;;;;;6.75;100.00;100691.03;5035606;28;20118;-80
2021/10/30 05:33:21;;;;;;;12.93;8.55;;;;;;;6.77;100.00;100696.13;5015859;28;20483;-78
2021/10/30 05:36:26;;;;;;;15.32;8.73;;;;;;;6.79;100.00;100696.81;5008352;28;20688;-78
2021/10/30 05:39:15;;;;;;;12.80;8.55;;;;;;;6.82;100.00;100704.41;5026022;28;20060;-78
2021/10/30 05:41:41;;;;;;;13.77;9.60;;;;;;;6.83;100.00;100701.66;5047183;28;20037;-78
2021/10/30 05:44:07;;;;;;;17.25;9.27;;;;;;;6.80;100.00;100696.72;5029937;28;20049;-80
2021/10/30 05:46:35;;;;;;;12.90;8.68;;;;;;;6.85;100.00;100696.31;5061274;28;20025;-79
2021/10/30 05:49:01;;;;;;;12.27;8.70;;;;;;;6.90;100.00;100703.78;5033990;28;20033;-81
2021/10/30 05:51:26;;;;;;;15.35;9.00;;;;;;;6.91;100.00;100700.22;5065952;28;20559;-79
2021/10/30 05:53:51;;;;;;;14.65;9.60;;;;;;;6.85;100.00;100693.72;5034425;28;20167;-79
2021/10/30 05:56:17;;;;;;;13.15;8.88;;;;;;;6.86;100.00;100687.56;5039970;28;20045;-81
2021/10/30 05:58:42;;;;;;;19.00;9.98;;;;;;;6.87;100.00;100693.59;5044222;28;20072;-81
2021/10/30 06:01:08;;;;;;;15.90;10.20;;;;;;;6.91;100.00;100695.84;5039936;28;20556;-79
2021/10/30 06:03:33;;;;;;;16.48;9.50;;;;;;;6.92;100.00;100704.50;5020652;28;20038;-79
2021/10/30 06:05:59;;;;;;;14.45;9.18;;;;;;;6.93;100.00;100704.38;5046630;28;20135;-79
2021/10/30 06:08:26;;;;;;;12.57;9.52;;;;;;;6.89;100.00;100704.72;5009356;28;20056;-80
2021/10/30 06:10:53;;;;;;;15.18;9.90;;;;;;;6.88;100.00;100697.88;5032447;28;20053;-80
2021/10/30 06:13:19;;;;;;;15.63;10.02;;;;;;;6.85;100.00;100704.16;5019456;28;20040;-79
2021/10/30 06:15:44;;;;;;;20.95;10.48;;;;;;;6.86;100.00;100713.63;5024053;28;20123;-80
2021/10/30 06:18:10;;;;;;;14.90;10.48;;;;;;;6.89;100.00;100694.31;5041300;28;20044;-79
2021/10/30 06:20:36;;;;;;;17.02;10.95;;;;;;;6.94;100.00;100692.97;5038254;28;20029;-80
2021/10/30 06:23:02;;;;;;;15.70;10.40;;;;;;;6.97;100.00;100682.31;5032984;28;20539;-79
2021/10/30 06:25:28;;;;;;;19.83;10.15;;;;;;;6.99;100.00;100685.63;5048082;28;20423;-79
2021/10/30 06:27:53;;;;;;;18.23;10.75;;;;;;;7.05;100.00;100683.47;5029792;28;20036;-79
2021/10/30 06:30:19;;;;;;;15.15;10.57;;;;;;;7.10;100.00;100689.13;5055046;28;20051;-80
2021/10/30 06:32:44;;;;;;;17.42;10.63;;;;;;;7.16;100.00;100683.41;5019976;28;20029;-78
2021/10/30 06:35:10;;;;;;;22.75;11.63;;;;;;;7.21;100.00;100692.53;5048790;28;20033;-79
2021/10/30 06:37:40;;;;;;;19.33;11.13;;;;;;;7.25;100.00;100674.00;5024997;28;20411;-81
2021/10/30 06:40:08;;;;;;;19.75;11.43;;;;;;;7.35;100.00;100675.72;5033140;28;20036;-80
2021/10/30 06:42:35;;;;;;;16.50;10.77;;;;;;;7.38;100.00;100680.69;5022647;28;20047;-80
2021/10/30 06:45:00;;;;;;;15.05;10.20;;;;;;;7.43;100.00;100680.31;5026645;28;20036;-80
2021/10/30 06:47:26;;;;;;;14.25;10.48;;;;;;;7.51;100.00;100677.88;5001909;28;20446;-77
2021/10/30 06:49:53;;;;;;;20.83;11.07;;;;;;;7.62;100.00;100679.59;5026084;28;20547;-79
2021/10/30 06:52:18;;;;;;;20.17;11.48;;;;;;;7.65;100.00;100684.56;5035924;28;20114;-79
2021/10/30 06:54:44;;;;;;;16.40;10.45;;;;;;;7.68;100.00;100676.47;5018541;28;20037;-79
2021/10/30 06:57:09;;;;;;;16.92;11.32;;;;;;;7.67;100.00;100680.03;5037076;28;20033;-79
2021/10/30 06:59:35;;;;;;;15.00;10.52;;;;;;;7.64;100.00;100671.63;5032206;28;20037;-79
2021/10/30 07:02:03;;;;;;;15.48;10.15;;;;;;;7.70;100.00;100684.16;5050971;28;20037;-80
2021/10/30 07:04:29;;;;;;;16.25;10.75;;;;;;;7.62;100.00;100674.38;5030548;28;20326;-79
2021/10/30 07:06:54;;;;;;;18.67;10.60;;;;;;;7.64;100.00;100672.47;5008384;28;20500;-79
2021/10/30 07:09:19;;;;;;;20.88;11.75;;;;;;;7.61;100.00;100670.13;5031550;28;20033;-78
2021/10/30 07:11:45;;;;;;;16.13;11.43;;;;;;;7.62;100.00;100671.75;5025481;28;20040;-78
2021/10/30 07:14:12;;;;;;;20.48;11.82;;;;;;;7.62;100.00;100665.72;5010601;28;20795;-78
2021/10/30 07:16:37;;;;;;;16.60;10.77;;;;;;;7.58;100.00;100659.94;5012290;28;20033;-79
2021/10/30 07:19:03;;;;;;;14.98;10.48;;;;;;;7.55;100.00;100662.78;5037323;28;20407;-79
2021/10/30 07:21:28;;;;;;;16.95;11.20;;;;;;;7.54;100.00;100655.94;5031215;28;20174;-79
2021/10/30 07:23:55;;;;;;;17.77;11.65;;;;;;;7.63;100.00;100652.53;5042834;28;20021;-79
2021/10/30 07:26:21;;;;;;;17.95;11.45;;;;;;;7.68;100.00;100649.53;5020953;28;20037;-79
2021/10/30 07:28:46;;;;;;;17.92;11.82;;;;;;;7.69;100.00;100645.97;5016954;28;20048;-78
2021/10/30 07:31:12;;;;;;;17.13;12.05;;;;;;;7.78;100.00;100645.19;5009765;28;20072;-79
2021/10/30 07:33:37;;;;;;;14.90;10.85;;;;;;;7.83;100.00;100650.00;5023797;28;20041;-79
2021/10/30 07:36:03;;;;;;;17.02;11.07;;;;;;;7.87;100.00;100649.59;5036275;28;20479;-79
2021/10/30 07:38:29;;;;;;;14.55;10.95;;;;;;;7.93;100.00;100648.25;5008195;28;20042;-80
2021/10/30 07:40:54;;;;;;;17.33;11.07;;;;;;;7.99;100.00;100642.53;5035974;28;20407;-81
2021/10/30 07:43:20;;;;;;;17.90;11.55;;;;;;;8.01;100.00;100647.63;5048878;28;20036;-79
2021/10/30 07:45:45;;;;;;;17.27;11.30;;;;;;;8.09;100.00;100642.56;5040381;28;20037;-80
2021/10/30 07:48:11;;;;;;;16.52;10.90;;;;;;;8.04;100.00;100639.50;5035214;28;20071;-79
2021/10/30 07:50:36;;;;;;;16.38;10.88;;;;;;;8.13;100.00;100647.38;5021320;28;20052;-79
2021/10/30 07:53:03;;;;;;;17.98;10.85;;;;;;;8.21;100.00;100644.09;5031393;28;20404;-79
2021/10/30 07:55:29;;;;;;;18.80;11.20;;;;;;;8.30;100.00;100632.00;5021293;28;20497;-79
2021/10/30 07:57:55;;;;;;;18.92;10.82;;;;;;;8.45;100.00;100638.53;5014835;28;20107;-78
2021/10/30 08:00:20;;;;;;;18.63;11.63;;;;;;;8.56;100.00;100648.06;5046375;28;20441;-79
2021/10/30 08:02:46;;;;;;;17.40;12.20;;;;;;;8.55;100.00;100642.00;5037963;28;20075;-80
2021/10/30 08:05:12;;;;;;;17.88;12.70;;;;;;;8.61;100.00;100643.25;5027495;28;20064;-81
2021/10/30 08:07:38;;;;;;;19.35;13.52;;;;;;;8.64;100.00;100637.72;5020815;28;20495;-78
2021/10/30 08:10:06;;;;;;;20.30;14.82;;;;;;;8.66;100.00;100633.19;5034179;28;20063;-78
2021/10/30 08:12:33;;;;;;;19.67;14.13;;;;;;;8.63;100.00;100632.66;5010021;28;20037;-80
2021/10/30 08:15:00;;;;;;;17.30;14.32;;;;;;;8.69;100.00;100630.31;5037489;28;20025;-79
2021/10/30 08:17:25;;;;;;;17.90;13.50;;;;;;;8.79;100.00;100635.53;5006236;28;20029;-81
2021/10/30 08:19:51;;;;;;;18.73;12.63;;;;;;;8.90;100.00;100639.81;5016729;28;20040;-83
2021/10/30 08:22:17;;;;;;;18.75;11.82;;;;;;;9.08;99.28;100629.47;5017103;28;20079;-81
2021/10/30 08:24:45;;;;;;;15.15;11.25;;;;;;;9.21;99.39;100643.09;5037761;28;20769;-81
2021/10/30 08:27:11;;;;;;;15.23;10.90;;;;;;;9.29;98.63;100643.22;5040367;28;20051;-81
2021/10/30 08:29:37;;;;;;;17.15;10.07;;;;;;;9.45;97.24;100631.34;5034245;28;20029;-81
2021/10/30 08:32:03;;;;;;;12.57;8.73;;;;;;;9.62;95.70;100635.81;5039512;28;20037;-80
2021/10/30 08:34:29;;;;;;;15.55;9.30;;;;;;;9.69;96.40;100636.09;5036823;28;20037;-80
2021/10/30 08:36:54;;;;;;;12.95;8.82;;;;;;;9.76;96.96;100637.19;5032434;28;20031;-80
2021/10/30 08:39:20;;;;;;;14.80;9.70;;;;;;;9.92;95.81;100644.41;5040191;28;20041;-80
2021/10/30 08:41:46;;;;;;;14.75;9.07;;;;;;;10.01;95.32;100642.72;5040870;28;20505;-80
2021/10/30 08:44:12;;;;;;;13.90;9.85;;;;;;;10.11;94.30;100638.25;5029028;28;20430;-80
2021/10/30 08:46:37;;;;;;;14.05;9.43;;;;;;;10.12;94.61;100637.28;5007577;28;20036;-80
2021/10/30 08:49:05;;;;;;;15.15;9.32;;;;;;;10.16;95.41;100640.44;5028624;28;20041;-80
2021/10/30 08:51:32;;;;;;;17.13;9.05;;;;;;;10.26;94.61;100630.72;5028891;28;20029;-80
2021/10/30 08:53:57;;;;;;;12.73;8.48;;;;;;;10.44;93.18;100654.38;5023849;28;20036;-80
2021/10/30 08:56:24;;;;;;;19.48;8.93;;;;;;;10.51;93.80;100652.84;5032967;28;20399;-79
2021/10/30 08:58:50;;;;;;;12.93;8.30;;;;;;;10.62;92.90;100644.72;5035947;28;20123;-80
2021/10/30 09:01:17;;;;;;;14.00;8.52;;;;;;;10.67;91.00;100642.47;5040088;28;20505;-80
2021/10/30 09:03:54;;;;;;;11.77;8.50;;;;;;;10.74;92.81;100642.72;5023552;28;20530;-80
2021/10/30 09:06:34;;;;;;;10.88;7.75;;;;;;;10.77;92.37;100645.03;5023309;28;20037;-80
2021/10/30 09:09:18;;;;;;;16.23;8.65;;;;;;;10.80;91.23;100641.28;5032852;28;20098;-80
2021/10/30 09:11:59;;;;;;;9.77;7.50;;;;;;;10.84;91.05;100635.59;5044628;28;20040;-80
2021/10/30 09:14:30;;;;;;;13.52;8.52;;;;;;;10.88;90.96;100633.50;5029966;28;20029;-80
2021/10/30 09:17:12;;;;;;;15.27;7.95;;;;;;;10.90;90.91;100636.78;5016906;28;20099;-80
2021/10/30 09:19:41;;;;;;;10.77;7.68;;;;;;;10.93;90.31;100630.44;5036475;28;20048;-80
2021/10/30 09:22:07;;;;;;;13.93;8.18;;;;;;;10.86;89.85;100630.19;5024969;28;20089;-81
2021/10/30 09:24:52;;;;;;;10.40;7.80;;;;;;;10.82;90.64;100631.47;5024891;28;20173;-80
2021/10/30 09:27:21;;;;;;;12.45;7.93;;;;;;;10.79;91.63;100624.72;5022005;28;20037;-79
2021/10/30 09:29:55;;;;;;;12.43;7.45;;;;;;;10.86;90.62;100632.81;5031719;28;20488;-80
2021/10/30 09:32:26;;;;;;;13.93;7.90;;;;;;;10.87;91.44;100637.09;5035473;28;20499;-80
2021/10/30 09:34:51;;;;;;;14.20;8.05;;;;;;;10.89;92.00;100632.53;5040673;28;20483;-79
2021/10/30 09:37:24;;;;;;;11.98;7.70;;;;;;;10.89;92.49;100629.91;5019644;28;20036;-79
2021/10/30 09:40:12;;;;;;;;;;;;;;;10.91;91.40;100626.13;5021232;28;20131;-80
2021/10/30 09:42:38;;;;;;;12.82;8.52;;;;;;;10.91;91.09;100622.69;5032180;28;20274;-80
2021/10/30 09:45:11;;;;;;;13.68;9.13;;;;;;;10.90;91.63;100616.59;5009075;28;20499;-79
2021/10/30 09:47:41;;;;;;;14.73;8.55;;;;;;;10.87;91.77;100611.69;5038156;28;20471;-79
2021/10/30 09:50:21;;;;;;;13.70;8.90;;;;;;;10.89;91.95;100608.91;5023306;28;20036;-79
2021/10/30 09:52:47;;;;;;;15.13;9.13;;;;;;;10.92;92.70;100608.59;5002732;28;20041;-81
2021/10/30 09:55:26;;;;;;;13.80;9.10;;;;;;;10.87;91.62;100609.06;5022483;28;20118;-79
2021/10/30 09:58:00;;;;;;;14.68;8.70;;;;;;;10.88;92.41;100604.63;5020559;28;20128;-79
2021/10/30 10:00:26;;;;;;;12.05;7.90;;;;;;;11.00;92.07;100602.56;5037151;28;20028;-81
2021/10/30 10:03:00;;;;;;;13.27;8.73;;;;;;;11.08;90.83;100597.41;5029590;28;20506;-80
2021/10/30 10:05:28;;;;;;;16.45;8.45;;;;;;;11.10;91.46;100598.88;5036001;28;20045;-79
2021/10/30 10:07:55;;;;;;;14.18;8.90;;;;;;;11.19;90.56;100583.19;5020007;28;20017;-79
2021/10/30 10:10:22;;;;;;;14.13;8.75;;;;;;;11.30;90.18;100580.28;5037540;28;20045;-80
2021/10/30 10:12:53;;;;;;;12.52;8.48;;;;;;;11.36;91.09;100573.59;5035710;28;20032;-80
2021/10/30 10:15:21;;;;;;;11.65;8.20;;;;;;;11.41;89.92;100580.03;5049921;28;20044;-79
2021/10/30 10:17:48;;;;;;;12.02;9.52;;;;;;;11.44;89.66;100581.53;5023952;28;20179;-80
2021/10/30 10:20:14;;;;;;;13.00;8.57;;;;;;;11.55;89.87;100578.66;5041781;28;20116;-78
2021/10/30 10:22:42;;;;;;;14.20;9.18;;;;;;;11.67;88.51;100573.94;5035584;28;20085;-80
2021/10/30 10:25:29;;;;;;;12.05;8.52;;;;;;;11.87;87.32;100577.97;5017596;28;20045;-80
2021/10/30 10:28:18;;;;;;;16.63;9.05;;;;;;;12.02;87.13;100574.75;5047954;28;20406;-80
2021/10/30 10:30:52;;;;;;;17.08;9.30;;;;;;;12.15;89.34;100572.50;5038932;28;20480;-82
2021/10/30 10:33:18;;;;;;;13.35;8.32;;;;;;;12.25;83.94;100557.38;5043172;28;20041;-80
2021/10/30 10:36:13;;;;;;;12.05;8.52;;;;;;;12.26;85.07;100555.56;5033302;28;20045;-80
2021/10/30 10:38:56;;;;;;;13.50;8.38;;;;;;;12.33;84.18;100551.31;5026573;28;20064;-80
2021/10/30 10:41:37;;;;;;;14.93;8.65;;;;;;;12.29;84.34;100546.53;5029423;28;20029;-79
2021/10/30 10:44:04;;;;;;;12.43;8.07;;;;;;;12.27;86.36;100542.25;5020683;28;20049;-78
2021/10/30 10:46:31;;;;;;;14.55;8.48;;;;;;;12.33;84.59;100540.78;5007852;28;20115;-81
2021/10/30 10:49:15;;;;;;;14.00;8.35;;;;;;;12.39;85.03;100534.06;5044814;28;20035;-79
2021/10/30 10:51:46;;;;;;;14.10;8.55;;;;;;;12.44;85.13;100519.41;5030323;28;20041;-80
2021/10/30 10:54:12;;;;;;;9.88;8.20;;;;;;;12.42;85.91;100510.06;5038795;28;20040;-80
2021/10/30 10:56:57;;;;;;;13.10;8.20;;;;;;;12.50;85.24;100520.56;5054847;28;20444;-82
2021/10/30 10:59:39;;;;;;;11.27;7.90;;;;;;;12.55;84.26;100507.75;5018722;28;20045;-79
2021/10/30 11:02:19;;;;;;;15.00;8.50;;;;;;;12.57;83.76;100500.53;5030419;28;20037;-79
2021/10/30 11:05:10;;;;;;;9.55;7.57;;;;;;;12.57;84.32;100500.53;5035261;28;20052;-83
2021/10/30 11:07:40;;;;;;;11.63;8.32;;;;;;;12.56;84.88;100485.72;5014362;28;20065;-80
2021/10/30 11:10:10;;;;;;;12.57;8.25;;;;;;;12.54;84.56;100482.41;5037721;28;20078;-80
2021/10/30 11:12:37;;;;;;;13.88;8.00;;;;;;;12.46;84.62;100472.72;5025955;28;20100;-81
2021/10/30 11:15:13;;;;;;;11.20;7.22;;;;;;;12.46;84.99;100469.28;5035891;28;20040;-82
2021/10/30 11:17:52;;;;;;;11.13;7.18;;;;;;;12.46;85.77;100462.22;5029243;28;20492;-81
2021/10/30 11:20:19;;;;;;;13.80;7.28;;;;;;;12.48;85.97;100453.34;5026945;28;20116;-82
2021/10/30 11:22:53;;;;;;;10.63;6.75;;;;;;;12.51;86.35;100447.72;5019988;28;20052;-81